sensor_id;sensor_type;location;lat;lon;timestamp;pressure;altitude;pressure_sealevel;temperature
71564;BMP180;59391;52.504;13.438;2023-05-10T00:02:09;100895.00;;;17.60
71564;BMP180;59391;52.504;13.438;2023-05-10T00:04:35;100895.00;;;17.50
71564;BMP180;59391;52.504;13.438;2023-05-10T00:07:00;100893.00;;;17.50
71564;BMP180;59391;52.504;13.438;2023-05-10T00:09:26;100896.00;;;17.50
71564;BMP180;59391;52.504;13.438;2023-05-10T00:11:52;100891.00;;;17.40
71564;BMP180;59391;52.504;13.438;2023-05-10T00:14:17;100881.00;;;17.40
71564;BMP180;59391;52.504;13.438;2023-05-10T00:16:43;100886.00;;;17.40
71564;BMP180;59391;52.504;13.438;2023-05-10T00:19:09;100881.00;;;17.40
71564;BMP180;59391;52.504;13.438;2023-05-10T00:21:34;100886.00;;;17.40
71564;BMP180;59391;52.504;13.438;2023-05-10T00:24:00;100874.00;;;17.30
71564;BMP180;59391;52.504;13.438;2023-05-10T00:26:26;100874.00;;;17.30
71564;BMP180;59391;52.504;13.438;2023-05-10T00:28:51;100868.00;;;17.30
71564;BMP180;59391;52.504;13.438;2023-05-10T00:31:17;100870.00;;;17.30
71564;BMP180;59391;52.504;13.438;2023-05-10T00:33:42;100865.00;;;17.20
71564;BMP180;59391;52.504;13.438;2023-05-10T00:36:08;100858.00;;;17.20
71564;BMP180;59391;52.504;13.438;2023-05-10T00:38:34;100863.00;;;17.20
71564;BMP180;59391;52.504;13.438;2023-05-10T00:41:00;100857.00;;;17.10
71564;BMP180;59391;52.504;13.438;2023-05-10T00:43:25;100855.00;;;17.10
71564;BMP180;59391;52.504;13.438;2023-05-10T00:45:52;100853.00;;;17.00
71564;BMP180;59391;52.504;13.438;2023-05-10T00:48:18;100859.00;;;17.00
71564;BMP180;59391;52.504;13.438;2023-05-10T00:50:44;100860.00;;;17.00
71564;BMP180;59391;52.504;13.438;2023-05-10T00:53:10;100850.00;;;16.90
71564;BMP180;59391;52.504;13.438;2023-05-10T00:55:36;100844.00;;;16.90
71564;BMP180;59391;52.504;13.438;2023-05-10T00:58:03;100839.00;;;16.80
71564;BMP180;59391;52.504;13.438;2023-05-10T01:00:29;100850.00;;;16.80
71564;BMP180;59391;52.504;13.438;2023-05-10T01:02:55;100848.00;;;16.70
71564;BMP180;59391;52.504;13.438;2023-05-10T01:05:20;100838.00;;;16.70
71564;BMP180;59391;52.504;13.438;2023-05-10T01:07:46;100844.00;;;16.70
71564;BMP180;59391;52.504;13.438;2023-05-10T01:10:12;100836.00;;;16.60
71564;BMP180;59391;52.504;13.438;2023-05-10T01:12:41;100832.00;;;16.60
71564;BMP180;59391;52.504;13.438;2023-05-10T01:15:09;100837.00;;;16.60
71564;BMP180;59391;52.504;13.438;2023-05-10T01:17:39;100834.00;;;16.50
71564;BMP180;59391;52.504;13.438;2023-05-10T01:20:07;100812.00;;;16.50
71564;BMP180;59391;52.504;13.438;2023-05-10T01:32:12;100822.00;;;16.30
71564;BMP180;59391;52.504;13.438;2023-05-10T01:37:21;100822.00;;;16.20
71564;BMP180;59391;52.504;13.438;2023-05-10T01:40:05;100819.00;;;16.20
71564;BMP180;59391;52.504;13.438;2023-05-10T01:42:47;100811.00;;;16.10
71564;BMP180;59391;52.504;13.438;2023-05-10T01:45:49;100816.00;;;16.10
71564;BMP180;59391;52.504;13.438;2023-05-10T01:48:17;100820.00;;;16.10
71564;BMP180;59391;52.504;13.438;2023-05-10T01:50:46;100817.00;;;16.00
71564;BMP180;59391;52.504;13.438;2023-05-10T01:53:13;100819.00;;;16.00
71564;BMP180;59391;52.504;13.438;2023-05-10T01:55:48;100818.00;;;16.00
71564;BMP180;59391;52.504;13.438;2023-05-10T01:58:28;100809.00;;;16.00
71564;BMP180;59391;52.504;13.438;2023-05-10T02:00:57;100808.00;;;16.00
71564;BMP180;59391;52.504;13.438;2023-05-10T02:03:25;100811.00;;;15.90
71564;BMP180;59391;52.504;13.438;2023-05-10T02:05:55;100812.00;;;15.90
71564;BMP180;59391;52.504;13.438;2023-05-10T02:08:23;100805.00;;;15.90
71564;BMP180;59391;52.504;13.438;2023-05-10T02:10:52;100798.00;;;15.90
71564;BMP180;59391;52.504;13.438;2023-05-10T02:13:19;100804.00;;;15.90
71564;BMP180;59391;52.504;13.438;2023-05-10T02:15:51;100802.00;;;15.80
71564;BMP180;59391;52.504;13.438;2023-05-10T02:18:18;100803.00;;;15.80
71564;BMP180;59391;52.504;13.438;2023-05-10T02:20:46;100803.00;;;15.80
71564;BMP180;59391;52.504;13.438;2023-05-10T02:23:14;100798.00;;;15.80
71564;BMP180;59391;52.504;13.438;2023-05-10T02:25:43;100797.00;;;15.70
71564;BMP180;59391;52.504;13.438;2023-05-10T02:28:11;100788.00;;;15.70
71564;BMP180;59391;52.504;13.438;2023-05-10T02:30:38;100795.00;;;15.70
71564;BMP180;59391;52.504;13.438;2023-05-10T02:33:05;100793.00;;;15.70
71564;BMP180;59391;52.504;13.438;2023-05-10T02:35:33;100797.00;;;15.70
71564;BMP180;59391;52.504;13.438;2023-05-10T02:38:01;100787.00;;;15.60
71564;BMP180;59391;52.504;13.438;2023-05-10T02:40:27;100793.00;;;15.60
71564;BMP180;59391;52.504;13.438;2023-05-10T02:42:56;100789.00;;;15.60
71564;BMP180;59391;52.504;13.438;2023-05-10T02:45:28;100793.00;;;15.60
71564;BMP180;59391;52.504;13.438;2023-05-10T02:47:56;100787.00;;;15.50
71564;BMP180;59391;52.504;13.438;2023-05-10T02:50:26;100795.00;;;15.50
71564;BMP180;59391;52.504;13.438;2023-05-10T02:53:01;100792.00;;;15.50
71564;BMP180;59391;52.504;13.438;2023-05-10T02:55:36;100784.00;;;15.40
71564;BMP180;59391;52.504;13.438;2023-05-10T02:58:03;100793.00;;;15.40
71564;BMP180;59391;52.504;13.438;2023-05-10T03:00:29;100798.00;;;15.40
71564;BMP180;59391;52.504;13.438;2023-05-10T03:02:55;100790.00;;;15.40
71564;BMP180;59391;52.504;13.438;2023-05-10T03:05:21;100789.00;;;15.30
71564;BMP180;59391;52.504;13.438;2023-05-10T03:07:48;100789.00;;;15.30
71564;BMP180;59391;52.504;13.438;2023-05-10T03:10:13;100788.00;;;15.30
71564;BMP180;59391;52.504;13.438;2023-05-10T03:13:12;100796.00;;;15.30
71564;BMP180;59391;52.504;13.438;2023-05-10T03:15:58;100791.00;;;15.20
71564;BMP180;59391;52.504;13.438;2023-05-10T03:18:48;100789.00;;;15.20
71564;BMP180;59391;52.504;13.438;2023-05-10T03:21:18;100789.00;;;15.20
71564;BMP180;59391;52.504;13.438;2023-05-10T03:23:57;100787.00;;;15.20
71564;BMP180;59391;52.504;13.438;2023-05-10T03:26:26;100786.00;;;15.20
71564;BMP180;59391;52.504;13.438;2023-05-10T03:28:54;100782.00;;;15.20
71564;BMP180;59391;52.504;13.438;2023-05-10T03:31:20;100789.00;;;15.20
71564;BMP180;59391;52.504;13.438;2023-05-10T03:33:48;100784.00;;;15.20
71564;BMP180;59391;52.504;13.438;2023-05-10T03:36:13;100784.00;;;15.20
71564;BMP180;59391;52.504;13.438;2023-05-10T03:38:39;100784.00;;;15.20
71564;BMP180;59391;52.504;13.438;2023-05-10T03:41:05;100787.00;;;15.20
71564;BMP180;59391;52.504;13.438;2023-05-10T03:43:30;100783.00;;;15.20
71564;BMP180;59391;52.504;13.438;2023-05-10T03:45:56;100778.00;;;15.20
71564;BMP180;59391;52.504;13.438;2023-05-10T03:48:21;100779.00;;;15.20
71564;BMP180;59391;52.504;13.438;2023-05-10T03:50:47;100785.00;;;15.20
71564;BMP180;59391;52.504;13.438;2023-05-10T03:53:15;100782.00;;;15.20
71564;BMP180;59391;52.504;13.438;2023-05-10T03:55:41;100778.00;;;15.20
71564;BMP180;59391;52.504;13.438;2023-05-10T03:58:06;100778.00;;;15.20
71564;BMP180;59391;52.504;13.438;2023-05-10T04:00:32;100777.00;;;15.20
71564;BMP180;59391;52.504;13.438;2023-05-10T04:02:58;100781.00;;;15.20
71564;BMP180;59391;52.504;13.438;2023-05-10T04:05:26;100779.00;;;15.20
71564;BMP180;59391;52.504;13.438;2023-05-10T04:07:51;100775.00;;;15.20
71564;BMP180;59391;52.504;13.438;2023-05-10T04:10:17;100784.00;;;15.20
71564;BMP180;59391;52.504;13.438;2023-05-10T04:12:43;100778.00;;;15.20
71564;BMP180;59391;52.504;13.438;2023-05-10T04:15:09;100769.00;;;15.20
71564;BMP180;59391;52.504;13.438;2023-05-10T04:17:34;100776.00;;;15.20
71564;BMP180;59391;52.504;13.438;2023-05-10T04:20:00;100772.00;;;15.20
71564;BMP180;59391;52.504;13.438;2023-05-10T04:22:25;100776.00;;;15.20
71564;BMP180;59391;52.504;13.438;2023-05-10T04:24:52;100770.00;;;15.20
71564;BMP180;59391;52.504;13.438;2023-05-10T04:27:18;100769.00;;;15.30
71564;BMP180;59391;52.504;13.438;2023-05-10T04:29:44;100757.00;;;15.30
71564;BMP180;59391;52.504;13.438;2023-05-10T04:32:09;100776.00;;;15.30
71564;BMP180;59391;52.504;13.438;2023-05-10T04:34:36;100777.00;;;15.30
71564;BMP180;59391;52.504;13.438;2023-05-10T04:37:02;100774.00;;;15.30
71564;BMP180;59391;52.504;13.438;2023-05-10T04:39:27;100761.00;;;15.40
71564;BMP180;59391;52.504;13.438;2023-05-10T04:41:53;100770.00;;;15.40
71564;BMP180;59391;52.504;13.438;2023-05-10T04:44:18;100760.00;;;15.40
71564;BMP180;59391;52.504;13.438;2023-05-10T04:46:44;100763.00;;;15.40
71564;BMP180;59391;52.504;13.438;2023-05-10T04:49:10;100760.00;;;15.40
71564;BMP180;59391;52.504;13.438;2023-05-10T04:51:35;100764.00;;;15.50
71564;BMP180;59391;52.504;13.438;2023-05-10T04:54:01;100763.00;;;15.50
71564;BMP180;59391;52.504;13.438;2023-05-10T04:56:26;100760.00;;;15.50
71564;BMP180;59391;52.504;13.438;2023-05-10T04:58:52;100758.00;;;15.60
71564;BMP180;59391;52.504;13.438;2023-05-10T05:01:18;100766.00;;;15.60
71564;BMP180;59391;52.504;13.438;2023-05-10T05:03:43;100758.00;;;15.60
71564;BMP180;59391;52.504;13.438;2023-05-10T05:06:09;100761.00;;;15.60
71564;BMP180;59391;52.504;13.438;2023-05-10T05:08:35;100770.00;;;15.70
71564;BMP180;59391;52.504;13.438;2023-05-10T05:11:00;100768.00;;;15.70
71564;BMP180;59391;52.504;13.438;2023-05-10T05:13:26;100757.00;;;15.80
71564;BMP180;59391;52.504;13.438;2023-05-10T05:15:52;100760.00;;;15.80
71564;BMP180;59391;52.504;13.438;2023-05-10T05:18:17;100757.00;;;15.80
71564;BMP180;59391;52.504;13.438;2023-05-10T05:20:43;100756.00;;;15.90
71564;BMP180;59391;52.504;13.438;2023-05-10T05:23:08;100753.00;;;15.90
71564;BMP180;59391;52.504;13.438;2023-05-10T05:25:34;100750.00;;;16.00
71564;BMP180;59391;52.504;13.438;2023-05-10T05:28:00;100755.00;;;16.00
71564;BMP180;59391;52.504;13.438;2023-05-10T05:30:26;100761.00;;;16.10
71564;BMP180;59391;52.504;13.438;2023-05-10T05:32:52;100757.00;;;16.10
71564;BMP180;59391;52.504;13.438;2023-05-10T05:35:18;100755.00;;;16.20
71564;BMP180;59391;52.504;13.438;2023-05-10T05:37:44;100745.00;;;16.20
71564;BMP180;59391;52.504;13.438;2023-05-10T05:40:13;100750.00;;;16.30
71564;BMP180;59391;52.504;13.438;2023-05-10T05:42:39;100752.00;;;16.30
71564;BMP180;59391;52.504;13.438;2023-05-10T05:45:05;100745.00;;;16.40
71564;BMP180;59391;52.504;13.438;2023-05-10T05:47:31;100749.00;;;16.50
71564;BMP180;59391;52.504;13.438;2023-05-10T05:49:57;100746.00;;;16.50
71564;BMP180;59391;52.504;13.438;2023-05-10T05:52:23;100736.00;;;16.60
71564;BMP180;59391;52.504;13.438;2023-05-10T05:54:48;100737.00;;;16.70
71564;BMP180;59391;52.504;13.438;2023-05-10T05:57:14;100736.00;;;16.70
71564;BMP180;59391;52.504;13.438;2023-05-10T05:59:40;100733.00;;;16.80
71564;BMP180;59391;52.504;13.438;2023-05-10T06:02:09;100739.00;;;16.90
71564;BMP180;59391;52.504;13.438;2023-05-10T06:04:35;100733.00;;;17.00
71564;BMP180;59391;52.504;13.438;2023-05-10T06:07:01;100738.00;;;17.00
71564;BMP180;59391;52.504;13.438;2023-05-10T06:09:26;100740.00;;;17.10
71564;BMP180;59391;52.504;13.438;2023-05-10T06:11:52;100738.00;;;17.20
71564;BMP180;59391;52.504;13.438;2023-05-10T06:14:20;100748.00;;;17.30
71564;BMP180;59391;52.504;13.438;2023-05-10T06:16:45;100749.00;;;17.40
71564;BMP180;59391;52.504;13.438;2023-05-10T06:19:11;100746.00;;;17.40
71564;BMP180;59391;52.504;13.438;2023-05-10T06:21:37;100746.00;;;17.50
71564;BMP180;59391;52.504;13.438;2023-05-10T06:24:03;100738.00;;;17.60
71564;BMP180;59391;52.504;13.438;2023-05-10T06:26:29;100745.00;;;17.60
71564;BMP180;59391;52.504;13.438;2023-05-10T06:28:55;100743.00;;;17.60
71564;BMP180;59391;52.504;13.438;2023-05-10T06:31:20;100754.00;;;17.80
71564;BMP180;59391;52.504;13.438;2023-05-10T06:33:46;100743.00;;;17.80
71564;BMP180;59391;52.504;13.438;2023-05-10T06:36:12;100745.00;;;17.90
71564;BMP180;59391;52.504;13.438;2023-05-10T06:38:38;100742.00;;;17.90
71564;BMP180;59391;52.504;13.438;2023-05-10T06:41:04;100736.00;;;17.90
71564;BMP180;59391;52.504;13.438;2023-05-10T06:43:30;100751.00;;;17.90
71564;BMP180;59391;52.504;13.438;2023-05-10T06:45:55;100735.00;;;18.00
71564;BMP180;59391;52.504;13.438;2023-05-10T06:48:21;100739.00;;;18.00
71564;BMP180;59391;52.504;13.438;2023-05-10T06:50:47;100744.00;;;18.10
71564;BMP180;59391;52.504;13.438;2023-05-10T06:53:12;100743.00;;;18.20
71564;BMP180;59391;52.504;13.438;2023-05-10T06:55:39;100736.00;;;18.20
71564;BMP180;59391;52.504;13.438;2023-05-10T06:58:05;100741.00;;;18.30
71564;BMP180;59391;52.504;13.438;2023-05-10T07:00:33;100745.00;;;18.40
71564;BMP180;59391;52.504;13.438;2023-05-10T07:03:02;100733.00;;;18.40
71564;BMP180;59391;52.504;13.438;2023-05-10T07:05:28;100738.00;;;18.50
71564;BMP180;59391;52.504;13.438;2023-05-10T07:07:54;100743.00;;;18.60
71564;BMP180;59391;52.504;13.438;2023-05-10T07:10:20;100744.00;;;18.60
71564;BMP180;59391;52.504;13.438;2023-05-10T07:12:46;100745.00;;;18.70
71564;BMP180;59391;52.504;13.438;2023-05-10T07:15:11;100736.00;;;18.70
71564;BMP180;59391;52.504;13.438;2023-05-10T07:17:40;100743.00;;;18.80
71564;BMP180;59391;52.504;13.438;2023-05-10T07:20:06;100735.00;;;18.90
71564;BMP180;59391;52.504;13.438;2023-05-10T07:22:32;100736.00;;;19.00
71564;BMP180;59391;52.504;13.438;2023-05-10T07:24:58;100734.00;;;19.00
71564;BMP180;59391;52.504;13.438;2023-05-10T07:27:23;100716.00;;;19.00
71564;BMP180;59391;52.504;13.438;2023-05-10T07:29:49;100735.00;;;19.10
71564;BMP180;59391;52.504;13.438;2023-05-10T07:32:15;100726.00;;;19.10
71564;BMP180;59391;52.504;13.438;2023-05-10T07:34:41;100730.00;;;19.20
71564;BMP180;59391;52.504;13.438;2023-05-10T07:37:07;100743.00;;;19.30
71564;BMP180;59391;52.504;13.438;2023-05-10T07:39:33;100736.00;;;19.40
71564;BMP180;59391;52.504;13.438;2023-05-10T07:41:58;100738.00;;;19.40
71564;BMP180;59391;52.504;13.438;2023-05-10T07:44:24;100737.00;;;19.50
71564;BMP180;59391;52.504;13.438;2023-05-10T07:46:50;100733.00;;;19.50
71564;BMP180;59391;52.504;13.438;2023-05-10T07:49:16;100724.00;;;19.60
71564;BMP180;59391;52.504;13.438;2023-05-10T07:51:42;100738.00;;;19.70
71564;BMP180;59391;52.504;13.438;2023-05-10T07:54:07;100730.00;;;19.80
71564;BMP180;59391;52.504;13.438;2023-05-10T07:56:33;100726.00;;;19.90
71564;BMP180;59391;52.504;13.438;2023-05-10T07:59:01;100716.00;;;20.00
71564;BMP180;59391;52.504;13.438;2023-05-10T08:01:30;100728.00;;;20.10
71564;BMP180;59391;52.504;13.438;2023-05-10T08:03:57;100726.00;;;20.10
71564;BMP180;59391;52.504;13.438;2023-05-10T08:06:23;100725.00;;;20.20
71564;BMP180;59391;52.504;13.438;2023-05-10T08:08:49;100726.00;;;20.40
71564;BMP180;59391;52.504;13.438;2023-05-10T08:11:19;100728.00;;;20.50
71564;BMP180;59391;52.504;13.438;2023-05-10T08:13:47;100728.00;;;20.60
71564;BMP180;59391;52.504;13.438;2023-05-10T08:16:13;100724.00;;;20.70
71564;BMP180;59391;52.504;13.438;2023-05-10T08:18:40;100724.00;;;20.80
71564;BMP180;59391;52.504;13.438;2023-05-10T08:21:06;100729.00;;;20.90
71564;BMP180;59391;52.504;13.438;2023-05-10T08:23:31;100726.00;;;21.10
71564;BMP180;59391;52.504;13.438;2023-05-10T08:26:00;100730.00;;;21.20
71564;BMP180;59391;52.504;13.438;2023-05-10T08:28:26;100722.00;;;21.30
71564;BMP180;59391;52.504;13.438;2023-05-10T08:30:52;100726.00;;;21.40
71564;BMP180;59391;52.504;13.438;2023-05-10T08:33:18;100727.00;;;21.60
71564;BMP180;59391;52.504;13.438;2023-05-10T08:35:44;100731.00;;;22.20
71564;BMP180;59391;52.504;13.438;2023-05-10T08:38:10;100736.00;;;23.00
71564;BMP180;59391;52.504;13.438;2023-05-10T08:40:37;100742.00;;;23.80
71564;BMP180;59391;52.504;13.438;2023-05-10T08:43:08;100730.00;;;24.50
71564;BMP180;59391;52.504;13.438;2023-05-10T08:45:40;100737.00;;;25.10
71564;BMP180;59391;52.504;13.438;2023-05-10T08:48:09;100734.00;;;25.70
71564;BMP180;59391;52.504;13.438;2023-05-10T08:50:40;100740.00;;;26.20
71564;BMP180;59391;52.504;13.438;2023-05-10T08:53:14;100746.00;;;26.60
71564;BMP180;59391;52.504;13.438;2023-05-10T08:55:41;100738.00;;;27.00
71564;BMP180;59391;52.504;13.438;2023-05-10T08:58:09;100736.00;;;27.30
71564;BMP180;59391;52.504;13.438;2023-05-10T09:00:36;100732.00;;;27.60
71564;BMP180;59391;52.504;13.438;2023-05-10T09:03:05;100737.00;;;28.00
71564;BMP180;59391;52.504;13.438;2023-05-10T09:05:31;100733.00;;;28.40
71564;BMP180;59391;52.504;13.438;2023-05-10T09:07:58;100739.00;;;28.70
71564;BMP180;59391;52.504;13.438;2023-05-10T09:10:27;100736.00;;;28.80
71564;BMP180;59391;52.504;13.438;2023-05-10T09:12:55;100742.00;;;29.00
71564;BMP180;59391;52.504;13.438;2023-05-10T09:15:21;100743.00;;;29.10
71564;BMP180;59391;52.504;13.438;2023-05-10T09:17:48;100744.00;;;29.30
71564;BMP180;59391;52.504;13.438;2023-05-10T09:20:14;100739.00;;;29.60
71564;BMP180;59391;52.504;13.438;2023-05-10T09:22:40;100751.00;;;29.90
71564;BMP180;59391;52.504;13.438;2023-05-10T09:25:09;100752.00;;;29.90
71564;BMP180;59391;52.504;13.438;2023-05-10T09:27:37;100744.00;;;30.00
71564;BMP180;59391;52.504;13.438;2023-05-10T09:30:05;100754.00;;;29.90
71564;BMP180;59391;52.504;13.438;2023-05-10T09:32:45;100758.00;;;29.80
71564;BMP180;59391;52.504;13.438;2023-05-10T09:35:18;100747.00;;;29.80
71564;BMP180;59391;52.504;13.438;2023-05-10T09:37:49;100757.00;;;29.60
71564;BMP180;59391;52.504;13.438;2023-05-10T09:40:18;100754.00;;;29.60
71564;BMP180;59391;52.504;13.438;2023-05-10T09:42:57;100760.00;;;29.70
71564;BMP180;59391;52.504;13.438;2023-05-10T09:45:25;100755.00;;;30.00
71564;BMP180;59391;52.504;13.438;2023-05-10T09:47:51;100753.00;;;30.50
71564;BMP180;59391;52.504;13.438;2023-05-10T09:50:18;100760.00;;;30.80
71564;BMP180;59391;52.504;13.438;2023-05-10T09:52:55;100758.00;;;30.90
71564;BMP180;59391;52.504;13.438;2023-05-10T09:55:39;100763.00;;;30.70
71564;BMP180;59391;52.504;13.438;2023-05-10T09:58:06;100761.00;;;30.30
71564;BMP180;59391;52.504;13.438;2023-05-10T10:00:38;100767.00;;;29.90
71564;BMP180;59391;52.504;13.438;2023-05-10T10:03:04;100772.00;;;29.80
71564;BMP180;59391;52.504;13.438;2023-05-10T10:05:35;100772.00;;;29.70
71564;BMP180;59391;52.504;13.438;2023-05-10T10:08:04;100760.00;;;29.50
71564;BMP180;59391;52.504;13.438;2023-05-10T10:10:32;100763.00;;;29.60
71564;BMP180;59391;52.504;13.438;2023-05-10T10:12:58;100759.00;;;29.70
71564;BMP180;59391;52.504;13.438;2023-05-10T10:15:24;100754.00;;;30.10
71564;BMP180;59391;52.504;13.438;2023-05-10T10:17:51;100756.00;;;30.20
71564;BMP180;59391;52.504;13.438;2023-05-10T10:20:20;100759.00;;;30.30
71564;BMP180;59391;52.504;13.438;2023-05-10T10:22:47;100757.00;;;30.50
71564;BMP180;59391;52.504;13.438;2023-05-10T10:25:15;100748.00;;;30.60
71564;BMP180;59391;52.504;13.438;2023-05-10T10:30:41;100756.00;;;30.80
71564;BMP180;59391;52.504;13.438;2023-05-10T10:35:58;100748.00;;;30.60
71564;BMP180;59391;52.504;13.438;2023-05-10T10:38:25;100739.00;;;30.80
71564;BMP180;59391;52.504;13.438;2023-05-10T10:41:10;100752.00;;;31.20
71564;BMP180;59391;52.504;13.438;2023-05-10T10:43:37;100737.00;;;31.30
71564;BMP180;59391;52.504;13.438;2023-05-10T10:46:14;100754.00;;;31.20
71564;BMP180;59391;52.504;13.438;2023-05-10T10:48:49;100752.00;;;31.10
71564;BMP180;59391;52.504;13.438;2023-05-10T10:51:16;100749.00;;;31.20
71564;BMP180;59391;52.504;13.438;2023-05-10T10:53:43;100756.00;;;30.90
71564;BMP180;59391;52.504;13.438;2023-05-10T10:56:11;100753.00;;;30.80
71564;BMP180;59391;52.504;13.438;2023-05-10T10:58:39;100748.00;;;31.10
71564;BMP180;59391;52.504;13.438;2023-05-10T11:01:15;100749.00;;;31.60
71564;BMP180;59391;52.504;13.438;2023-05-10T11:06:32;100748.00;;;32.40
71564;BMP180;59391;52.504;13.438;2023-05-10T11:09:05;100759.00;;;32.20
71564;BMP180;59391;52.504;13.438;2023-05-10T11:11:31;100742.00;;;32.20
71564;BMP180;59391;52.504;13.438;2023-05-10T11:14:04;100752.00;;;32.10
71564;BMP180;59391;52.504;13.438;2023-05-10T11:16:44;100754.00;;;31.90
71564;BMP180;59391;52.504;13.438;2023-05-10T11:19:15;100755.00;;;31.70
71564;BMP180;59391;52.504;13.438;2023-05-10T11:22:12;100744.00;;;31.60
71564;BMP180;59391;52.504;13.438;2023-05-10T11:24:56;100741.00;;;31.80
71564;BMP180;59391;52.504;13.438;2023-05-10T11:27:23;100750.00;;;32.00
71564;BMP180;59391;52.504;13.438;2023-05-10T11:29:52;100742.00;;;32.00
71564;BMP180;59391;52.504;13.438;2023-05-10T11:32:19;100734.00;;;32.00
71564;BMP180;59391;52.504;13.438;2023-05-10T11:34:47;100743.00;;;32.40
71564;BMP180;59391;52.504;13.438;2023-05-10T11:37:13;100744.00;;;32.40
71564;BMP180;59391;52.504;13.438;2023-05-10T11:39:46;100733.00;;;32.60
71564;BMP180;59391;52.504;13.438;2023-05-10T11:42:14;100739.00;;;33.00
71564;BMP180;59391;52.504;13.438;2023-05-10T11:44:40;100742.00;;;33.40
71564;BMP180;59391;52.504;13.438;2023-05-10T11:47:07;100739.00;;;33.40
71564;BMP180;59391;52.504;13.438;2023-05-10T11:49:32;100743.00;;;33.60
71564;BMP180;59391;52.504;13.438;2023-05-10T11:52:08;100749.00;;;33.60
71564;BMP180;59391;52.504;13.438;2023-05-10T11:54:36;100747.00;;;33.40
71564;BMP180;59391;52.504;13.438;2023-05-10T11:57:02;100750.00;;;33.20
71564;BMP180;59391;52.504;13.438;2023-05-10T11:59:28;100740.00;;;33.30
71564;BMP180;59391;52.504;13.438;2023-05-10T12:01:54;100747.00;;;33.70
71564;BMP180;59391;52.504;13.438;2023-05-10T12:04:20;100746.00;;;33.70
71564;BMP180;59391;52.504;13.438;2023-05-10T12:06:46;100737.00;;;33.50
71564;BMP180;59391;52.504;13.438;2023-05-10T12:09:12;100744.00;;;33.30
71564;BMP180;59391;52.504;13.438;2023-05-10T12:11:39;100759.00;;;33.00
71564;BMP180;59391;52.504;13.438;2023-05-10T12:14:06;100752.00;;;32.80
71564;BMP180;59391;52.504;13.438;2023-05-10T12:16:32;100748.00;;;32.60
71564;BMP180;59391;52.504;13.438;2023-05-10T12:19:00;100747.00;;;32.40
71564;BMP180;59391;52.504;13.438;2023-05-10T12:21:28;100749.00;;;32.20
71564;BMP180;59391;52.504;13.438;2023-05-10T12:23:59;100758.00;;;32.00
71564;BMP180;59391;52.504;13.438;2023-05-10T12:26:25;100761.00;;;31.90
71564;BMP180;59391;52.504;13.438;2023-05-10T12:28:54;100760.00;;;31.80
71564;BMP180;59391;52.504;13.438;2023-05-10T12:31:20;100754.00;;;31.70
71564;BMP180;59391;52.504;13.438;2023-05-10T12:33:46;100760.00;;;31.70
71564;BMP180;59391;52.504;13.438;2023-05-10T12:36:15;100758.00;;;31.70
71564;BMP180;59391;52.504;13.438;2023-05-10T12:38:44;100753.00;;;31.50
71564;BMP180;59391;52.504;13.438;2023-05-10T12:41:14;100758.00;;;31.40
71564;BMP180;59391;52.504;13.438;2023-05-10T12:43:40;100737.00;;;31.40
71564;BMP180;59391;52.504;13.438;2023-05-10T12:46:14;100754.00;;;31.20
71564;BMP180;59391;52.504;13.438;2023-05-10T12:48:43;100756.00;;;31.10
71564;BMP180;59391;52.504;13.438;2023-05-10T12:51:09;100753.00;;;30.90
71564;BMP180;59391;52.504;13.438;2023-05-10T12:53:38;100759.00;;;30.80
71564;BMP180;59391;52.504;13.438;2023-05-10T12:56:04;100760.00;;;30.70
71564;BMP180;59391;52.504;13.438;2023-05-10T12:58:30;100752.00;;;30.50
71564;BMP180;59391;52.504;13.438;2023-05-10T13:00:57;100762.00;;;30.40
71564;BMP180;59391;52.504;13.438;2023-05-10T13:03:22;100760.00;;;30.30
71564;BMP180;59391;52.504;13.438;2023-05-10T13:05:48;100748.00;;;30.30
71564;BMP180;59391;52.504;13.438;2023-05-10T13:08:14;100762.00;;;30.30
71564;BMP180;59391;52.504;13.438;2023-05-10T13:10:40;100757.00;;;30.10
71564;BMP180;59391;52.504;13.438;2023-05-10T13:13:06;100746.00;;;30.10
71564;BMP180;59391;52.504;13.438;2023-05-10T13:15:32;100747.00;;;30.30
71564;BMP180;59391;52.504;13.438;2023-05-10T13:17:58;100750.00;;;30.40
71564;BMP180;59391;52.504;13.438;2023-05-10T13:20:24;100738.00;;;30.40
71564;BMP180;59391;52.504;13.438;2023-05-10T13:22:50;100752.00;;;30.40
71564;BMP180;59391;52.504;13.438;2023-05-10T13:25:16;100753.00;;;30.50
71564;BMP180;59391;52.504;13.438;2023-05-10T13:27:42;100747.00;;;30.50
71564;BMP180;59391;52.504;13.438;2023-05-10T13:30:09;100748.00;;;30.40
71564;BMP180;59391;52.504;13.438;2023-05-10T13:32:35;100744.00;;;30.30
71564;BMP180;59391;52.504;13.438;2023-05-10T13:35:01;100754.00;;;30.30
71564;BMP180;59391;52.504;13.438;2023-05-10T13:37:30;100738.00;;;30.40
71564;BMP180;59391;52.504;13.438;2023-05-10T13:39:55;100740.00;;;30.40
71564;BMP180;59391;52.504;13.438;2023-05-10T13:42:23;100737.00;;;30.30
71564;BMP180;59391;52.504;13.438;2023-05-10T13:44:51;100738.00;;;30.30
71564;BMP180;59391;52.504;13.438;2023-05-10T13:47:17;100736.00;;;30.10
71564;BMP180;59391;52.504;13.438;2023-05-10T13:49:43;100741.00;;;30.00
71564;BMP180;59391;52.504;13.438;2023-05-10T13:52:09;100737.00;;;29.80
71564;BMP180;59391;52.504;13.438;2023-05-10T13:54:36;100745.00;;;29.70
71564;BMP180;59391;52.504;13.438;2023-05-10T13:57:02;100741.00;;;29.50
71564;BMP180;59391;52.504;13.438;2023-05-10T13:59:28;100739.00;;;29.40
71564;BMP180;59391;52.504;13.438;2023-05-10T14:01:54;100747.00;;;29.30
71564;BMP180;59391;52.504;13.438;2023-05-10T14:04:20;100736.00;;;29.30
71564;BMP180;59391;52.504;13.438;2023-05-10T14:06:46;100746.00;;;29.20
71564;BMP180;59391;52.504;13.438;2023-05-10T14:09:12;100734.00;;;29.20